Time;durP1;ratioP1;P1;durP2;ratioP2;P2;SDS_P1;SDS_P2;PMS_P1;PMS_P2;Temp;Humidity;BMP_temperature;BMP_pressure;BME280_temperature;BME280_humidity;BME280_pressure;Samples;Min_cycle;Max_cycle;Signal;HPM_P1;HPM_P2
2021/01/13 00:01:46;;;;;;;13.68;5.70;;;;;;;;;;5036524;28;20044;-60
2021/01/13 00:04:12;;;;;;;21.15;6.97;;;;;;;;;;5042928;28;20049;-62
2021/01/13 00:06:38;;;;;;;28.00;7.93;;;;;;;;;;5049758;28;20033;-62
2021/01/13 00:09:04;;;;;;;13.50;4.50;;;1.30;99.90;;;;;;5046977;28;20057;-62
2021/01/13 00:11:30;;;;;;;9.32;4.50;;;1.40;99.90;;;;;;5052466;28;20531;-60
2021/01/13 00:13:56;;;;;;;14.98;6.18;;;1.50;99.90;;;;;;5054022;28;20036;-59
2021/01/13 00:16:21;;;;;;;11.52;5.20;;;;;;;;;;5044591;28;20017;-60
2021/01/13 00:18:49;;;;;;;11.48;4.13;;;1.20;99.90;;;;;;5054946;28;20477;-60
2021/01/13 00:21:16;;;;;;;20.63;8.75;;;1.30;99.90;;;;;;5045565;28;20048;-60
2021/01/13 00:23:46;;;;;;;19.00;7.07;;;1.50;99.90;;;;;;5055640;28;20166;-60
2021/01/13 00:26:22;;;;;;;26.65;7.72;;;1.10;99.90;;;;;;5042141;28;20028;-60
2021/01/13 00:28:53;;;;;;;19.13;6.78;;;1.20;99.90;;;;;;5057232;28;20041;-60
2021/01/13 00:31:19;;;;;;;22.10;7.53;;;;;;;;;;5037794;28;20033;-60
2021/01/13 00:33:48;;;;;;;14.85;4.65;;;1.10;99.90;;;;;;5043367;28;20025;-60
2021/01/13 00:36:18;;;;;;;27.65;7.10;;;;;;;;;;5053249;28;20520;-60
2021/01/13 00:38:44;;;;;;;24.23;9.53;;;;;;;;;;5049597;28;20031;-60
2021/01/13 00:41:12;;;;;;;16.98;6.72;;;1.30;99.90;;;;;;5042452;28;20421;-60
2021/01/13 00:43:38;;;;;;;17.00;5.88;;;1.50;99.90;;;;;;5048052;28;20041;-60
2021/01/13 00:46:03;;;;;;;20.08;6.35;;;;;;;;;;5062236;28;20029;-60
2021/01/13 00:48:29;;;;;;;11.45;4.35;;;;;;;;;;5060177;28;20032;-60
2021/01/13 00:50:55;;;;;;;16.38;7.22;;;;;;;;;;5052232;28;20059;-60
2021/01/13 00:53:21;;;;;;;11.30;5.13;;;;;;;;;;5052551;28;20166;-60
2021/01/13 00:55:47;;;;;;;14.73;6.38;;;;;;;;;;5051467;28;20119;-60
2021/01/13 00:58:13;;;;;;;13.45;5.13;;;;;;;;;;5038469;28;21001;-60
2021/01/13 01:00:39;;;;;;;12.02;4.72;;;;;;;;;;5043263;28;20081;-60
2021/01/13 01:03:06;;;;;;;16.33;3.95;;;;;;;;;;5040261;28;20512;-60
2021/01/13 01:05:32;;;;;;;20.35;8.50;;;;;;;;;;5047620;28;20542;-60
2021/01/13 01:07:58;;;;;;;13.10;5.78;;;;;;;;;;5049870;28;20021;-60
2021/01/13 01:10:29;;;;;;;20.95;7.05;;;1.30;99.90;;;;;;5047825;28;20049;-60
2021/01/13 01:12:55;;;;;;;25.00;8.73;;;;;;;;;;5047872;28;20443;-60
2021/01/13 01:15:21;;;;;;;19.42;8.25;;;1.10;99.90;;;;;;5051808;28;20103;-60
2021/01/13 01:17:47;;;;;;;19.60;7.72;;;1.30;99.90;;;;;;5050624;28;20033;-60
2021/01/13 01:20:13;;;;;;;13.40;6.45;;;1.20;99.90;;;;;;5058953;28;20385;-59
2021/01/13 01:22:59;;;;;;;16.42;5.70;;;1.30;99.90;;;;;;5047035;28;20111;-60
2021/01/13 01:25:26;;;;;;;15.27;7.10;;;1.20;99.90;;;;;;5061670;28;20053;-60
2021/01/13 01:27:54;;;;;;;16.23;5.97;;;1.50;99.90;;;;;;5060403;28;20115;-60
2021/01/13 01:30:20;;;;;;;18.70;9.65;;;1.20;99.90;;;;;;5048712;28;20107;-60
2021/01/13 01:32:47;;;;;;;17.15;7.38;;;1.10;99.90;;;;;;5048642;28;20029;-60
2021/01/13 01:35:14;;;;;;;14.55;6.13;;;1.10;99.90;;;;;;5040895;28;20021;-60
2021/01/13 01:37:40;;;;;;;19.25;8.00;;;1.00;99.90;;;;;;5059586;28;20428;-60
2021/01/13 01:40:14;;;;;;;20.48;7.05;;;1.00;99.90;;;;;;5048534;28;20031;-60
2021/01/13 01:42:47;;;;;;;16.00;7.22;;;1.30;99.90;;;;;;5054281;28;20030;-60
2021/01/13 01:45:18;;;;;;;15.65;6.45;;;2.50;99.90;;;;;;5043040;28;20024;-61
2021/01/13 01:47:44;;;;;;;16.60;6.30;;;;;;;;;;5039715;28;20024;-60
2021/01/13 01:50:10;;;;;;;20.00;9.55;;;;;;;;;;5048882;28;20428;-60
2021/01/13 01:52:44;;;;;;;17.70;8.27;;;1.10;99.90;;;;;;5042832;28;20036;-61
2021/01/13 01:55:12;;;;;;;13.00;4.00;;;1.50;99.90;;;;;;5051717;28;20028;-60
2021/01/13 01:57:40;;;;;;;26.25;9.35;;;2.00;99.90;;;;;;5060147;28;20493;-60
2021/01/13 02:00:15;;;;;;;13.45;5.50;;;;;;;;;;5052492;28;20056;-60
2021/01/13 02:02:55;;;;;;;22.45;8.25;;;1.30;99.90;;;;;;5043215;28;20025;-60
2021/01/13 02:05:22;;;;;;;13.88;6.28;;;1.40;99.90;;;;;;5039456;28;20060;-60
2021/01/13 02:07:52;;;;;;;17.10;5.68;;;1.40;99.90;;;;;;5038098;28;20079;-61
2021/01/13 02:10:18;;;;;;;18.80;5.55;;;;;;;;;;5050934;28;20052;-61
2021/01/13 02:12:52;;;;;;;23.85;7.80;;;1.30;99.90;;;;;;5052765;28;20028;-60
2021/01/13 02:15:18;;;;;;;19.92;8.75;;;1.40;99.90;;;;;;5056577;28;20399;-61
2021/01/13 02:17:54;;;;;;;26.45;8.38;;;1.30;99.90;;;;;;5061072;28;20021;-60
2021/01/13 02:20:24;;;;;;;18.92;6.60;;;1.50;99.90;;;;;;5050102;28;20040;-60
2021/01/13 02:22:51;;;;;;;26.38;9.73;;;;;;;;;;5048425;28;20056;-60
2021/01/13 02:25:42;;;;;;;23.30;8.82;;;1.50;99.90;;;;;;5044337;28;20500;-60
2021/01/13 02:28:21;;;;;;;14.68;4.80;;;1.20;99.90;;;;;;5049506;28;20031;-61
2021/01/13 02:31:08;;;;;;;31.17;8.63;;;;;;;;;;5039914;28;20029;-60
2021/01/13 02:33:48;;;;;;;12.85;5.68;;;1.40;99.90;;;;;;5052506;28;20040;-60
2021/01/13 02:36:31;;;;;;;9.70;3.08;;;1.50;99.90;;;;;;5053840;28;20568;-61
2021/01/13 02:38:58;;;;;;;16.73;5.78;;;;;;;;;;5050917;28;20101;-60
2021/01/13 02:41:30;;;;;;;19.70;8.00;;;1.30;99.90;;;;;;5055159;28;20040;-61
2021/01/13 02:44:02;;;;;;;20.35;7.43;;;1.60;99.90;;;;;;5053198;28;20024;-60
2021/01/13 02:47:17;;;;;;;14.93;6.38;;;1.60;99.90;;;;;;5049769;28;20025;-60
2021/01/13 02:49:50;;;;;;;21.13;8.50;;;1.60;99.90;;;;;;5020782;28;20529;-60
2021/01/13 02:52:17;;;;;;;22.25;7.97;;;1.90;99.90;;;;;;5027015;28;20132;-60
2021/01/13 02:54:44;;;;;;;19.27;6.10;;;1.60;99.90;;;;;;5029819;28;20203;-60
2021/01/13 02:57:15;;;;;;;27.58;6.70;;;1.50;99.90;;;;;;5030826;28;20462;-61
2021/01/13 02:59:45;;;;;;;16.20;6.03;;;1.90;99.90;;;;;;5029390;28;20405;-60
2021/01/13 03:02:11;;;;;;;18.75;8.68;;;1.60;99.90;;;;;;5024287;28;20489;-60
2021/01/13 03:04:38;;;;;;;12.00;5.47;;;1.30;99.90;;;;;;5028628;28;20355;-60
2021/01/13 03:07:25;;;;;;;18.65;4.45;;;1.50;99.90;;;;;;5027462;28;20033;-60
2021/01/13 03:09:57;;;;;;;22.17;7.38;;;1.50;99.90;;;;;;5028732;28;20136;-60
2021/01/13 03:12:27;;;;;;;30.02;8.60;;;1.30;99.90;;;;;;5010884;28;20053;-60
2021/01/13 03:14:57;;;;;;;16.77;6.32;;;1.70;99.90;;;;;;5029038;28;20488;-61
2021/01/13 03:17:41;;;;;;;14.32;5.40;;;1.70;99.90;;;;;;5028598;28;20033;-60
2021/01/13 03:20:16;;;;;;;29.17;7.80;;;1.50;99.90;;;;;;5021246;28;20304;-61
2021/01/13 03:22:50;;;;;;;13.27;6.47;;;1.70;99.90;;;;;;5028922;28;20397;-61
2021/01/13 03:25:18;;;;;;;24.55;7.47;;;1.60;99.90;;;;;;5027301;28;20033;-60
2021/01/13 03:27:45;;;;;;;19.08;5.68;;;1.60;99.90;;;;;;5050088;28;20059;-61
2021/01/13 03:30:12;;;;;;;21.17;9.13;;;1.80;99.90;;;;;;5042181;28;20025;-60
2021/01/13 03:33:09;;;;;;;13.77;6.35;;;1.80;99.90;;;;;;5043989;28;20052;-61
2021/01/13 03:35:40;;;;;;;17.83;7.38;;;1.90;99.90;;;;;;5057489;28;20378;-60
2021/01/13 03:38:12;;;;;;;16.35;5.90;;;1.70;99.90;;;;;;5039304;28;20481;-60
2021/01/13 03:40:39;;;;;;;18.63;6.40;;;2.00;99.90;;;;;;5048561;28;20056;-60
2021/01/13 03:43:21;;;;;;;22.67;6.70;;;1.70;99.90;;;;;;5054135;28;20025;-60
2021/01/13 03:45:53;;;;;;;17.98;7.20;;;1.50;99.90;;;;;;5050644;28;20027;-61
2021/01/13 03:48:39;;;;;;;11.98;3.65;;;1.60;99.90;;;;;;5050667;28;20021;-60
2021/01/13 03:51:07;;;;;;;11.75;3.75;;;2.00;99.90;;;;;;5052524;28;20233;-61
2021/01/13 03:53:39;;;;;;;20.27;7.78;;;1.80;99.90;;;;;;5046351;28;20030;-61
2021/01/13 03:56:09;;;;;;;14.20;6.45;;;1.90;99.90;;;;;;5039648;28;20040;-60
2021/01/13 03:58:51;;;;;;;15.00;4.80;;;1.90;99.90;;;;;;5041767;28;20163;-60
2021/01/13 04:01:16;;;;;;;18.45;7.03;;;2.20;99.90;;;;;;5049244;28;20029;-60
2021/01/13 04:04:07;;;;;;;20.67;7.97;;;2.00;99.90;;;;;;5044831;28;20389;-61
2021/01/13 04:06:41;;;;;;;21.42;9.10;;;1.50;99.90;;;;;;5059460;28;20413;-60
2021/01/13 04:09:15;;;;;;;18.67;6.93;;;1.90;99.90;;;;;;5040694;28;20094;-60
2021/01/13 04:11:41;;;;;;;15.38;5.47;;;1.90;99.90;;;;;;5066243;28;20552;-60
2021/01/13 04:14:09;;;;;;;28.98;11.50;;;2.00;99.90;;;;;;5052314;28;20033;-60
2021/01/13 04:16:38;;;;;;;15.52;6.20;;;2.00;99.90;;;;;;5052738;28;20033;-60
2021/01/13 04:19:07;;;;;;;20.52;7.63;;;1.80;99.90;;;;;;5049349;28;20028;-61
2021/01/13 04:21:33;;;;;;;23.00;9.00;;;1.80;99.90;;;;;;5048542;28;20036;-61
2021/01/13 04:24:02;;;;;;;29.50;9.20;;;1.60;99.90;;;;;;5045245;28;20072;-61
2021/01/13 04:26:28;;;;;;;25.67;5.50;;;1.70;99.90;;;;;;5041646;28;20026;-60
2021/01/13 04:28:55;;;;;;;22.45;7.88;;;1.70;99.90;;;;;;5049453;28;20017;-60
2021/01/13 04:31:21;;;;;;;23.85;9.00;;;1.70;99.90;;;;;;5038446;28;20032;-60
2021/01/13 04:33:47;;;;;;;14.57;4.88;;;1.60;99.90;;;;;;5050789;28;20030;-60
2021/01/13 04:36:14;;;;;;;14.98;6.13;;;1.60;99.90;;;;;;5056189;28;20104;-60
2021/01/13 04:38:40;;;;;;;21.25;5.70;;;1.70;99.90;;;;;;5035214;28;20035;-61
2021/01/13 04:41:12;;;;;;;11.82;4.68;;;1.80;99.90;;;;;;5044301;28;20021;-60
2021/01/13 04:43:57;;;;;;;16.92;7.25;;;1.70;99.90;;;;;;5033244;28;20041;-60
2021/01/13 04:46:28;;;;;;;17.98;6.60;;;1.60;99.90;;;;;;5037786;28;20381;-60
2021/01/13 04:49:20;;;;;;;19.60;9.18;;;1.60;99.90;;;;;;5052183;28;20028;-60
2021/01/13 04:51:47;;;;;;;14.20;6.32;;;1.50;99.90;;;;;;5053460;28;20037;-61
2021/01/13 04:54:18;;;;;;;24.52;7.47;;;1.40;99.90;;;;;;5049875;28;20032;-60
2021/01/13 04:57:03;;;;;;;19.42;8.18;;;1.50;99.90;;;;;;5043544;28;20036;-60
2021/01/13 05:00:07;;;;;;;30.40;10.00;;;1.50;99.90;;;;;;5047470;28;20025;-60
2021/01/13 05:02:41;;;;;;;19.67;8.20;;;1.50;99.90;;;;;;5041530;28;20392;-60
2021/01/13 05:05:07;;;;;;;19.52;7.97;;;1.00;99.90;;;;;;5055096;28;20060;-60
2021/01/13 05:07:38;;;;;;;25.90;9.85;;;1.40;99.90;;;;;;5044027;28;20064;-60
2021/01/13 05:10:12;;;;;;;29.67;10.90;;;1.60;99.90;;;;;;5040314;28;20045;-61
2021/01/13 05:12:50;;;;;;;14.48;5.03;;;1.50;99.90;;;;;;5034235;28;20358;-60
2021/01/13 05:15:34;;;;;;;14.85;7.15;;;1.60;99.90;;;;;;5044410;28;20354;-60
2021/01/13 05:18:05;;;;;;;28.77;12.45;;;;;;;;;;5042754;28;20429;-61
2021/01/13 05:20:33;;;;;;;21.48;8.93;;;1.60;99.90;;;;;;5043566;28;20090;-61
2021/01/13 05:23:00;;;;;;;27.73;9.32;;;1.60;99.90;;;;;;5045595;28;20041;-61
2021/01/13 05:25:34;;;;;;;24.58;9.75;;;1.60;99.90;;;;;;5046696;28;20535;-61
2021/01/13 05:28:08;;;;;;;29.92;8.73;;;1.60;99.90;;;;;;5042229;28;20037;-61
2021/01/13 05:30:39;;;;;;;20.98;8.10;;;1.60;99.90;;;;;;5047179;28;20025;-61
2021/01/13 05:33:10;;;;;;;33.03;12.82;;;2.30;99.90;;;;;;5051016;28;20456;-61
2021/01/13 05:35:57;;;;;;;25.17;11.52;;;1.80;99.90;;;;;;5049380;28;20582;-61
2021/01/13 05:38:58;;;;;;;26.05;9.98;;;1.40;99.90;;;;;;5048540;28;20029;-61
2021/01/13 05:41:23;;;;;;;;;;;1.70;99.90;;;;;;5048132;28;20051;-61
2021/01/13 05:43:50;;;;;;;25.35;9.18;;;;;;;;;;5045606;28;19921;-61
2021/01/13 05:46:17;;;;;;;22.30;8.95;;;1.70;99.90;;;;;;5047847;28;20029;-61
2021/01/13 05:48:47;;;;;;;20.80;8.05;;;1.60;99.90;;;;;;5052655;28;20048;-61
2021/01/13 05:51:13;;;;;;;26.27;9.50;;;1.70;99.90;;;;;;5046668;28;20051;-61
2021/01/13 05:53:50;;;;;;;20.60;9.25;;;1.60;99.90;;;;;;5047317;28;20234;-61
2021/01/13 05:56:19;;;;;;;24.13;11.95;;;1.50;99.90;;;;;;5045590;28;20024;-60
2021/01/13 05:58:45;;;;;;;31.33;16.33;;;1.80;99.90;;;;;;5048530;28;20025;-61
2021/01/13 06:01:26;;;;;;;22.77;10.55;;;2.00;99.90;;;;;;5047384;28;20041;-60
2021/01/13 06:03:55;;;;;;;19.20;8.30;;;2.10;99.90;;;;;;5049029;28;20037;-61
2021/01/13 06:06:25;;;;;;;28.17;10.90;;;2.00;99.90;;;;;;5039050;28;20076;-61
2021/01/13 06:08:54;;;;;;;22.90;8.50;;;1.70;99.90;;;;;;5049571;28;20551;-61
2021/01/13 06:11:20;;;;;;;25.27;11.52;;;;;;;;;;5049818;28;20088;-61
2021/01/13 06:13:47;;;;;;;30.58;18.30;;;2.00;99.90;;;;;;5047300;28;20032;-61
2021/01/13 06:16:16;;;;;;;40.67;15.70;;;2.00;99.90;;;;;;5051333;28;20029;-60
2021/01/13 06:18:43;;;;;;;22.02;8.68;;;2.00;99.90;;;;;;5051788;28;20093;-61
2021/01/13 06:21:12;;;;;;;27.58;9.02;;;1.90;99.90;;;;;;5049420;28;20029;-61
2021/01/13 06:23:48;;;;;;;27.98;11.93;;;2.00;99.90;;;;;;5048362;28;20091;-61
2021/01/13 06:26:14;;;;;;;23.48;10.82;;;;;;;;;;5047751;28;20025;-60
2021/01/13 06:29:00;;;;;;;24.77;11.05;;;2.10;99.90;;;;;;5039398;28;20381;-61
2021/01/13 06:31:27;;;;;;;38.05;13.65;;;2.10;99.90;;;;;;5031252;28;20665;-61
2021/01/13 06:34:30;;;;;;;24.73;9.85;;;2.10;99.90;;;;;;5034465;28;20358;-61
2021/01/13 06:37:05;;;;;;;31.67;12.70;;;2.00;99.90;;;;;;5023693;28;20043;-61
2021/01/13 06:39:33;;;;;;;18.33;9.15;;;1.90;99.90;;;;;;5037553;28;20155;-61
2021/01/13 06:42:00;;;;;;;31.00;11.82;;;;;;;;;;5036338;28;20512;-61
2021/01/13 06:44:45;;;;;;;21.77;9.60;;;2.10;99.90;;;;;;5045523;28;20048;-61
2021/01/13 06:47:10;;;;;;;35.63;14.05;;;2.00;99.90;;;;;;5037757;28;20406;-61
2021/01/13 06:49:36;;;;;;;45.35;19.80;;;2.10;99.90;;;;;;5035516;28;20045;-61
2021/01/13 06:52:02;;;;;;;41.47;16.90;;;2.10;99.90;;;;;;5037204;28;20036;-61
2021/01/13 06:54:30;;;;;;;35.67;14.68;;;;;;;;;;5046520;28;20036;-61
2021/01/13 06:56:58;;;;;;;22.50;11.30;;;2.10;99.90;;;;;;5053281;28;20118;-61
2021/01/13 06:59:25;;;;;;;28.90;14.25;;;2.20;99.90;;;;;;5039334;28;20130;-61
2021/01/13 07:01:55;;;;;;;35.72;13.88;;;2.20;99.90;;;;;;5051874;28;20021;-60
2021/01/13 07:04:22;;;;;;;26.70;12.07;;;;;;;;;;5040541;28;20437;-60
2021/01/13 07:07:05;;;;;;;33.28;12.48;;;2.10;99.90;;;;;;5038064;28;20113;-64
2021/01/13 07:09:32;;;;;;;28.80;11.23;;;;;;;;;;5045692;28;20043;-61
2021/01/13 07:12:06;;;;;;;32.05;14.80;;;1.80;99.90;;;;;;5043454;28;20473;-61
2021/01/13 07:14:35;;;;;;;32.38;12.63;;;2.00;99.90;;;;;;5053690;28;20029;-61
2021/01/13 07:17:01;;;;;;;38.10;13.45;;;2.00;99.90;;;;;;5054621;28;20017;-61
2021/01/13 07:19:27;;;;;;;13.20;5.38;;;1.90;99.90;;;;;;5047576;28;20017;-61
2021/01/13 07:21:53;;;;;;;53.35;23.10;;;;;;;;;;5047501;28;20021;-61
2021/01/13 07:24:19;;;;;;;40.47;13.13;;;2.00;99.90;;;;;;5043823;28;20431;-61
2021/01/13 07:26:45;;;;;;;32.90;14.15;;;;;;;;;;5050502;28;20026;-61
2021/01/13 07:29:11;;;;;;;41.22;15.10;;;2.00;99.90;;;;;;5048222;28;20420;-61
2021/01/13 07:31:37;;;;;;;47.95;17.60;;;2.00;99.90;;;;;;5045075;28;20036;-61
2021/01/13 07:34:15;;;;;;;34.30;15.00;;;1.90;99.90;;;;;;5042092;28;20107;-61
2021/01/13 07:36:46;;;;;;;39.58;14.55;;;2.20;99.90;;;;;;5035891;28;20026;-60
2021/01/13 07:39:13;;;;;;;40.45;15.82;;;2.00;99.90;;;;;;5033333;28;20080;-60
2021/01/13 07:41:58;;;;;;;34.80;10.88;;;1.80;99.90;;;;;;5040485;28;20034;-60
2021/01/13 07:44:42;;;;;;;53.70;23.73;;;2.00;99.90;;;;;;5045480;28;20041;-61
2021/01/13 07:47:48;;;;;;;34.28;14.15;;;2.00;99.90;;;;;;5043994;28;20091;-61
2021/01/13 07:50:15;;;;;;;41.80;13.57;;;1.90;99.90;;;;;;5010222;28;20049;-61
2021/01/13 07:52:46;;;;;;;48.03;21.30;;;2.00;99.90;;;;;;5041890;28;20065;-61
2021/01/13 07:55:16;;;;;;;24.17;11.70;;;;;;;;;;5041386;28;20210;-61
2021/01/13 08:04:43;;;;;;;38.30;13.18;;;2.10;99.90;;;;;;5038384;28;20041;-61
2021/01/13 08:07:16;;;;;;;22.85;9.98;;;1.50;99.90;;;;;;5042253;28;20024;-61
2021/01/13 08:09:49;;;;;;;46.17;17.92;;;1.80;99.90;;;;;;5043464;28;20484;-60
2021/01/13 08:12:20;;;;;;;44.20;20.00;;;2.00;99.90;;;;;;5040424;28;20119;-61
2021/01/13 08:15:14;;;;;;;47.22;17.67;;;2.30;99.90;;;;;;5043505;28;20032;-61
2021/01/13 08:18:05;;;;;;;48.53;14.90;;;;;;;;;;5044424;28;20029;-61
2021/01/13 08:20:27;;;;;;;45.65;15.30;;;;;;;;;;5041126;28;20359;-61
2021/01/13 08:23:11;;;;;;;41.92;20.85;;;2.20;99.90;;;;;;5042446;28;20033;-61
2021/01/13 08:25:42;;;;;;;38.90;16.80;;;;;;;;;;5032518;28;20564;-60
2021/01/13 08:28:12;;;;;;;35.25;14.50;;;2.30;99.90;;;;;;5041435;28;20021;-61
2021/01/13 08:30:41;;;;;;;32.90;15.50;;;2.20;99.90;;;;;;5040847;28;20630;-61
2021/01/13 08:33:10;;;;;;;33.33;12.48;;;;;;;;;;5042779;28;20036;-61
2021/01/13 08:35:37;;;;;;;34.70;14.45;;;2.40;99.90;;;;;;5037231;28;20247;-61
2021/01/13 08:38:10;;;;;;;32.78;14.00;;;2.50;99.90;;;;;;5041580;28;20018;-60
2021/01/13 08:40:37;;;;;;;34.78;15.05;;;2.50;99.90;;;;;;5049608;28;20040;-61
2021/01/13 08:43:13;;;;;;;36.83;15.23;;;2.50;99.90;;;;;;5035281;28;20026;-61
2021/01/13 08:45:40;;;;;;;28.33;12.30;;;;;;;;;;5047406;28;20055;-61
2021/01/13 08:48:09;;;;;;;27.75;10.70;;;2.60;99.90;;;;;;5039095;28;20076;-61
2021/01/13 08:50:35;;;;;;;12.38;6.35;;;2.70;99.90;;;;;;5045488;28;20040;-61
2021/01/13 08:53:05;;;;;;;41.47;18.65;;;2.80;99.90;;;;;;5040437;28;20017;-61
2021/01/13 08:55:32;;;;;;;23.30;9.10;;;2.50;99.90;;;;;;5036450;28;20057;-61
2021/01/13 08:58:08;;;;;;;22.13;11.40;;;2.70;99.90;;;;;;5042822;28;20107;-61
2021/01/13 09:00:36;;;;;;;28.00;12.75;;;2.90;99.90;;;;;;5042097;28;20038;-61
2021/01/13 09:03:10;;;;;;;20.95;7.28;;;3.00;99.90;;;;;;5036958;28;20021;-61
2021/01/13 09:05:38;;;;;;;27.77;10.07;;;2.80;99.90;;;;;;5042230;28;20115;-61
2021/01/13 09:08:08;;;;;;;15.88;5.60;;;3.00;99.90;;;;;;5043841;28;20033;-61
2021/01/13 09:10:55;;;;;;;21.30;9.82;;;3.00;99.90;;;;;;5043455;28;20044;-61
2021/01/13 09:13:32;;;;;;;31.88;13.63;;;3.30;99.90;;;;;;5040047;28;20029;-60
2021/01/13 09:16:28;;;;;;;27.90;10.38;;;3.00;99.90;;;;;;5038695;28;20024;-61
2021/01/13 09:18:55;;;;;;;28.35;11.85;;;3.10;99.90;;;;;;5042261;28;20508;-61
2021/01/13 09:21:41;;;;;;;28.52;11.00;;;3.00;99.90;;;;;;5045743;28;20566;-61
2021/01/13 09:24:16;;;;;;;28.42;8.82;;;3.10;99.90;;;;;;5048126;28;20044;-61
2021/01/13 09:26:52;;;;;;;34.60;14.00;;;3.10;99.90;;;;;;5049311;28;20021;-61
2021/01/13 09:29:18;;;;;;;20.83;8.82;;;3.00;99.90;;;;;;5056915;28;20020;-61
2021/01/13 09:32:15;;;;;;;30.58;12.07;;;3.10;99.90;;;;;;5040397;28;20021;-61
2021/01/13 09:34:42;;;;;;;34.20;13.48;;;;;;;;;;5048352;28;20079;-61
2021/01/13 09:37:07;;;;;;;26.30;14.18;;;3.20;99.90;;;;;;5036523;28;20112;-61
2021/01/13 09:39:38;;;;;;;34.40;13.13;;;3.30;99.90;;;;;;5034959;28;20124;-61
2021/01/13 09:42:06;;;;;;;23.42;8.68;;;3.50;99.90;;;;;;5030909;28;20022;-61
2021/01/13 09:44:34;;;;;;;33.42;17.88;;;3.60;99.90;;;;;;5048226;28;20036;-61
2021/01/13 09:47:26;;;;;;;30.73;12.15;;;3.70;99.90;;;;;;5037819;28;20033;-61
2021/01/13 09:49:56;;;;;;;27.42;11.32;;;3.60;99.90;;;;;;5042640;28;20436;-61
2021/01/13 09:52:23;;;;;;;36.73;17.47;;;3.80;99.90;;;;;;5044342;28;20037;-61
2021/01/13 09:54:51;;;;;;;24.83;8.70;;;4.10;99.90;;;;;;5044446;28;20369;-62
2021/01/13 09:57:18;;;;;;;31.27;12.65;;;3.90;99.90;;;;;;5048407;28;20033;-61
2021/01/13 10:00:00;;;;;;;31.25;13.35;;;3.80;99.90;;;;;;5047002;28;20029;-61
2021/01/13 10:02:27;;;;;;;40.38;17.92;;;3.90;99.90;;;;;;5036002;28;20037;-61
2021/01/13 10:04:53;;;;;;;35.95;12.77;;;3.80;99.90;;;;;;5046606;28;20384;-61
2021/01/13 10:07:22;;;;;;;25.83;9.68;;;4.00;99.90;;;;;;5053764;28;20017;-61
2021/01/13 10:09:48;;;;;;;27.25;9.45;;;4.10;99.90;;;;;;5042461;28;20729;-61
2021/01/13 10:12:15;;;;;;;17.92;7.22;;;;;;;;;;5036590;28;20389;-61
2021/01/13 10:14:51;;;;;;;15.60;7.65;;;4.10;99.90;;;;;;5038329;28;20036;-61
2021/01/13 10:17:27;;;;;;;24.65;9.23;;;4.00;99.90;;;;;;5050652;28;20044;-61
2021/01/13 10:19:53;;;;;;;30.55;13.82;;;3.80;99.90;;;;;;5046111;28;20451;-61
2021/01/13 10:22:29;;;;;;;27.00;10.68;;;4.10;99.90;;;;;;5059994;28;20033;-61
2021/01/13 10:24:55;;;;;;;23.95;8.93;;;;;;;;;;5054888;28;20035;-61
2021/01/13 10:27:22;;;;;;;21.88;10.55;;;3.90;99.90;;;;;;5049753;28;20021;-61
2021/01/13 10:29:48;;;;;;;31.60;10.60;;;;;;;;;;5044921;28;20025;-61
2021/01/13 10:32:15;;;;;;;29.15;10.45;;;;;;;;;;5047463;28;20435;-61
2021/01/13 10:34:50;;;;;;;29.70;12.85;;;3.80;99.90;;;;;;5042221;28;20037;-61
2021/01/13 10:37:16;;;;;;;28.75;12.13;;;;;;;;;;5047315;28;20094;-61
2021/01/13 10:39:42;;;;;;;19.08;9.10;;;;;;;;;;5039266;28;20032;-61
2021/01/13 10:42:08;;;;;;;31.63;14.65;;;5.30;99.90;;;;;;5050266;28;20032;-61
2021/01/13 10:44:35;;;;;;;35.13;18.92;;;4.40;99.90;;;;;;5055642;28;20413;-61
2021/01/13 10:47:03;;;;;;;29.85;12.18;;;5.00;99.90;;;;;;5052179;28;20174;-61
2021/01/13 10:49:35;;;;;;;31.75;16.13;;;5.70;99.90;;;;;;5060900;28;20059;-61
2021/01/13 10:52:15;;;;;;;28.98;12.07;;;5.20;99.90;;;;;;5042259;28;20412;-61
2021/01/13 10:54:43;;;;;;;40.28;18.40;;;4.60;99.90;;;;;;5051226;28;20102;-61
2021/01/13 10:57:11;;;;;;;19.20;9.63;;;4.60;99.90;;;;;;5049684;28;20053;-61
2021/01/13 10:59:38;;;;;;;25.10;11.77;;;4.60;99.90;;;;;;5048435;28;20033;-61
2021/01/13 11:02:05;;;;;;;35.70;14.55;;;;;;;;;;5049666;28;20029;-61
2021/01/13 11:04:40;;;;;;;25.77;12.75;;;4.40;99.90;;;;;;5045150;28;20038;-61
2021/01/13 11:07:25;;;;;;;32.78;16.00;;;5.00;99.90;;;;;;5050645;28;20021;-61
2021/01/13 11:09:51;;;;;;;28.75;14.38;;;4.90;99.90;;;;;;5048550;28;20037;-61
2021/01/13 11:12:23;;;;;;;34.35;13.60;;;4.80;99.90;;;;;;5049218;28;20036;-61
2021/01/13 11:14:51;;;;;;;34.88;17.50;;;6.20;99.90;;;;;;5049300;28;20104;-61
2021/01/13 11:17:24;;;;;;;42.20;20.10;;;4.80;99.90;;;;;;5050947;28;20036;-61
2021/01/13 11:19:53;;;;;;;30.35;12.73;;;4.80;99.90;;;;;;5042078;28;20377;-61
2021/01/13 11:22:46;;;;;;;26.02;11.65;;;4.90;99.90;;;;;;5045450;28;20528;-61
2021/01/13 11:25:22;;;;;;;22.85;8.88;;;5.20;99.90;;;;;;5044025;28;20086;-61
2021/01/13 11:27:59;;;;;;;28.83;12.70;;;4.80;99.90;;;;;;5050828;28;20024;-61
2021/01/13 11:30:26;;;;;;;37.92;17.05;;;4.30;99.90;;;;;;5046697;28;20047;-61
2021/01/13 11:32:53;;;;;;;38.92;19.52;;;4.50;99.90;;;;;;5043097;28;20040;-61
2021/01/13 11:35:36;;;;;;;34.33;13.93;;;4.70;99.90;;;;;;5036934;28;20029;-61
2021/01/13 11:38:29;;;;;;;19.17;8.30;;;4.70;99.90;;;;;;5049867;28;20029;-61
2021/01/13 11:41:24;;;;;;;29.75;12.95;;;4.80;99.90;;;;;;5050336;28;20032;-61
2021/01/13 11:44:06;;;;;;;36.05;17.75;;;4.80;99.90;;;;;;5044583;28;20113;-61
2021/01/13 11:46:40;;;;;;;17.15;7.45;;;;;;;;;;5041133;28;20037;-61
2021/01/13 11:49:23;;;;;;;29.48;12.40;;;4.80;99.90;;;;;;5039032;28;20101;-61
2021/01/13 11:51:52;;;;;;;34.58;17.55;;;4.70;99.90;;;;;;5034852;28;20492;-61
2021/01/13 11:54:28;;;;;;;35.30;13.10;;;5.00;99.90;;;;;;5036535;28;20451;-61
2021/01/13 11:57:14;;;;;;;27.95;13.27;;;5.10;99.90;;;;;;5042385;28;20021;-61
2021/01/13 11:59:40;;;;;;;14.43;6.93;;;;;;;;;;5042867;28;20032;-61
2021/01/13 12:02:12;;;;;;;26.80;12.13;;;5.50;99.90;;;;;;5040493;28;20580;-61
2021/01/13 12:04:45;;;;;;;28.42;13.75;;;5.10;99.90;;;;;;5046524;28;20524;-61
2021/01/13 12:07:11;;;;;;;25.17;10.48;;;5.00;99.90;;;;;;5041508;28;20021;-61
2021/01/13 12:09:37;;;;;;;28.73;14.38;;;;;;;;;;5050173;28;20167;-61
2021/01/13 12:12:05;;;;;;;31.52;14.85;;;4.80;99.90;;;;;;5048576;28;20033;-61
2021/01/13 12:14:43;;;;;;;28.50;13.75;;;4.70;99.90;;;;;;5049283;28;20017;-61
2021/01/13 12:17:10;;;;;;;28.95;14.10;;;4.70;99.90;;;;;;5048019;28;20063;-61
2021/01/13 12:19:40;;;;;;;38.78;14.55;;;4.50;99.90;;;;;;5049073;28;20183;-61
2021/01/13 12:22:06;;;;;;;31.98;12.23;;;4.60;99.90;;;;;;5048730;28;20028;-61
2021/01/13 12:24:39;;;;;;;28.20;11.38;;;4.50;99.90;;;;;;5061298;28;20256;-61
2021/01/13 12:27:22;;;;;;;24.83;11.05;;;4.40;99.90;;;;;;5050180;28;20484;-61
2021/01/13 12:30:13;;;;;;;39.30;17.50;;;4.40;99.90;;;;;;5045369;28;20481;-61
2021/01/13 12:32:40;;;;;;;31.70;17.40;;;4.50;99.90;;;;;;5065675;28;20229;-61
2021/01/13 12:35:10;;;;;;;28.92;12.70;;;4.60;99.90;;;;;;5048710;28;20029;-62
2021/01/13 12:37:49;;;;;;;28.15;13.90;;;4.30;99.90;;;;;;5041947;28;20017;-61
2021/01/13 12:40:15;;;;;;;22.48;9.70;;;;;;;;;;5048447;28;20037;-61
2021/01/13 12:42:41;;;;;;;28.90;12.90;;;4.20;99.90;;;;;;5047924;28;20104;-61
2021/01/13 12:45:07;;;;;;;26.30;10.07;;;4.00;99.90;;;;;;5053622;28;20163;-61
2021/01/13 12:47:32;;;;;;;29.88;13.02;;;4.60;99.90;;;;;;5039284;28;20366;-61
2021/01/13 12:49:58;;;;;;;26.10;10.00;;;4.30;99.90;;;;;;5040158;28;20042;-61
2021/01/13 12:52:24;;;;;;;36.03;10.45;;;;;;;;;;5045208;28;20033;-61
2021/01/13 12:54:50;;;;;;;36.30;19.38;;;;;;;;;;5036445;28;20100;-61
2021/01/13 12:57:16;;;;;;;23.10;10.50;;;;;;;;;;5051153;28;20322;-61
2021/01/13 12:59:42;;;;;;;18.60;7.45;;;;;;;;;;5058771;28;20024;-61
2021/01/13 13:02:09;;;;;;;23.42;10.38;;;4.10;99.90;;;;;;5043097;28;20025;-61
2021/01/13 13:04:35;;;;;;;19.98;8.52;;;;;;;;;;5048522;28;20080;-61
2021/01/13 13:07:01;;;;;;;25.83;11.25;;;4.40;99.90;;;;;;5048309;28;20564;-61
2021/01/13 13:09:26;;;;;;;25.25;8.52;;;4.40;99.90;;;;;;5045772;28;20132;-61
2021/01/13 13:11:55;;;;;;;20.35;9.68;;;4.40;99.90;;;;;;5049172;28;20108;-61
2021/01/13 13:14:20;;;;;;;17.83;8.45;;;4.30;99.90;;;;;;5054804;28;20025;-61
2021/01/13 13:16:46;;;;;;;20.70;10.15;;;;;;;;;;5038013;28;20035;-62
2021/01/13 13:19:13;;;;;;;26.17;11.32;;;4.40;99.90;;;;;;5043522;28;20021;-61
2021/01/13 13:21:38;;;;;;;14.90;5.90;;;4.80;99.90;;;;;;5031466;28;20021;-61
2021/01/13 13:24:05;;;;;;;24.05;11.18;;;;;;;;;;5058208;28;20040;-61
2021/01/13 13:26:30;;;;;;;16.30;6.10;;;4.90;99.90;;;;;;5061014;28;20083;-61
2021/01/13 13:28:56;;;;;;;30.27;14.45;;;;;;;;;;5047772;28;20473;-61
2021/01/13 13:31:23;;;;;;;18.95;7.13;;;6.60;99.90;;;;;;5048711;28;20032;-61